sensor_id;sensor_type;location;lat;lon;timestamp;pressure;altitude;pressure_sealevel;temperature;humidity
15314;BME280;7757;52.626;4.746;2023-09-19T00:00:38;100409.13;;;21.39;57.70
15314;BME280;7757;52.626;4.746;2023-09-19T00:03:05;100409.34;;;21.32;57.72
15314;BME280;7757;52.626;4.746;2023-09-19T00:05:36;100411.47;;;21.10;57.98
15314;BME280;7757;52.626;4.746;2023-09-19T00:08:04;100405.84;;;21.37;57.89
15314;BME280;7757;52.626;4.746;2023-09-19T00:10:30;100424.91;;;21.37;57.74
15314;BME280;7757;52.626;4.746;2023-09-19T00:12:57;100415.09;;;21.41;57.72
15314;BME280;7757;52.626;4.746;2023-09-19T00:15:30;100426.81;;;21.41;57.82
15314;BME280;7757;52.626;4.746;2023-09-19T00:17:56;100425.97;;;21.36;56.92
15314;BME280;7757;52.626;4.746;2023-09-19T00:20:25;100408.22;;;21.23;57.93
15314;BME280;7757;52.626;4.746;2023-09-19T00:22:51;100425.72;;;21.42;57.23
15314;BME280;7757;52.626;4.746;2023-09-19T00:25:17;100421.03;;;21.23;56.68
15314;BME280;7757;52.626;4.746;2023-09-19T00:27:43;100434.38;;;21.29;57.25
15314;BME280;7757;52.626;4.746;2023-09-19T00:30:11;100443.06;;;21.26;57.48
15314;BME280;7757;52.626;4.746;2023-09-19T00:32:45;100419.63;;;21.15;57.99
15314;BME280;7757;52.626;4.746;2023-09-19T00:35:14;100431.09;;;21.22;57.84
15314;BME280;7757;52.626;4.746;2023-09-19T00:37:59;100430.59;;;21.35;57.72
15314;BME280;7757;52.626;4.746;2023-09-19T00:40:26;100411.13;;;21.06;57.19
15314;BME280;7757;52.626;4.746;2023-09-19T00:42:57;100421.22;;;21.11;55.52
15314;BME280;7757;52.626;4.746;2023-09-19T00:45:25;100431.34;;;21.21;57.97
15314;BME280;7757;52.626;4.746;2023-09-19T00:47:52;100418.88;;;21.30;57.16
15314;BME280;7757;52.626;4.746;2023-09-19T00:50:22;100422.66;;;21.29;57.16
15314;BME280;7757;52.626;4.746;2023-09-19T00:52:49;100425.91;;;21.21;57.36
15314;BME280;7757;52.626;4.746;2023-09-19T00:55:16;100429.44;;;21.21;57.65
15314;BME280;7757;52.626;4.746;2023-09-19T00:57:45;100432.44;;;21.20;57.15
15314;BME280;7757;52.626;4.746;2023-09-19T01:00:11;100443.34;;;21.30;57.26
15314;BME280;7757;52.626;4.746;2023-09-19T01:02:44;100424.44;;;21.03;57.82
15314;BME280;7757;52.626;4.746;2023-09-19T01:05:10;100434.59;;;21.12;57.46
15314;BME280;7757;52.626;4.746;2023-09-19T01:07:37;100427.53;;;21.17;57.33
15314;BME280;7757;52.626;4.746;2023-09-19T01:10:08;100424.09;;;20.89;57.15
15314;BME280;7757;52.626;4.746;2023-09-19T01:18:16;100430.38;;;20.90;57.18
15314;BME280;7757;52.626;4.746;2023-09-19T01:23:23;100428.31;;;21.12;57.27
15314;BME280;7757;52.626;4.746;2023-09-19T01:26:10;100438.94;;;21.13;57.33
15314;BME280;7757;52.626;4.746;2023-09-19T01:29:07;100441.09;;;21.11;56.57
15314;BME280;7757;52.626;4.746;2023-09-19T01:31:39;100446.25;;;21.08;57.41
15314;BME280;7757;52.626;4.746;2023-09-19T01:34:07;100442.59;;;20.92;57.73
15314;BME280;7757;52.626;4.746;2023-09-19T01:36:37;100452.69;;;20.97;57.44
15314;BME280;7757;52.626;4.746;2023-09-19T01:39:10;100458.53;;;21.10;57.16
15314;BME280;7757;52.626;4.746;2023-09-19T01:41:51;100458.78;;;21.14;56.85
15314;BME280;7757;52.626;4.746;2023-09-19T01:47:38;100431.41;;;20.84;57.24
15314;BME280;7757;52.626;4.746;2023-09-19T01:52:54;100445.34;;;20.97;56.91
15314;BME280;7757;52.626;4.746;2023-09-19T01:55:22;100462.50;;;21.03;56.13
15314;BME280;7757;52.626;4.746;2023-09-19T01:58:01;100441.50;;;20.93;56.21
15314;BME280;7757;52.626;4.746;2023-09-19T02:00:28;100447.25;;;20.97;56.11
15314;BME280;7757;52.626;4.746;2023-09-19T02:02:56;100447.25;;;20.97;56.75
15314;BME280;7757;52.626;4.746;2023-09-19T02:05:24;100448.38;;;21.06;56.39
15314;BME280;7757;52.626;4.746;2023-09-19T02:07:50;100449.78;;;21.08;56.22
15314;BME280;7757;52.626;4.746;2023-09-19T02:10:15;100439.63;;;20.94;56.63
15314;BME280;7757;52.626;4.746;2023-09-19T02:12:42;100409.06;;;20.72;56.26
15314;BME280;7757;52.626;4.746;2023-09-19T02:15:08;100423.59;;;20.92;56.64
15314;BME280;7757;52.626;4.746;2023-09-19T02:17:37;100441.56;;;21.03;56.81
15314;BME280;7757;52.626;4.746;2023-09-19T02:20:03;100447.00;;;21.03;56.74
15314;BME280;7757;52.626;4.746;2023-09-19T02:22:36;100461.38;;;20.94;56.56
15314;BME280;7757;52.626;4.746;2023-09-19T02:25:04;100461.53;;;20.77;56.22
15314;BME280;7757;52.626;4.746;2023-09-19T02:27:30;100464.31;;;20.87;56.66
15314;BME280;7757;52.626;4.746;2023-09-19T02:29:56;100475.28;;;21.02;56.32
15314;BME280;7757;52.626;4.746;2023-09-19T02:32:21;100472.50;;;20.92;56.58
15314;BME280;7757;52.626;4.746;2023-09-19T02:34:48;100472.72;;;20.81;56.12
15314;BME280;7757;52.626;4.746;2023-09-19T02:37:14;100457.81;;;20.93;55.95
15314;BME280;7757;52.626;4.746;2023-09-19T02:39:41;100447.44;;;20.80;56.95
15314;BME280;7757;52.626;4.746;2023-09-19T02:42:07;100437.09;;;20.82;56.18
15314;BME280;7757;52.626;4.746;2023-09-19T02:44:33;100457.50;;;20.85;56.46
15314;BME280;7757;52.626;4.746;2023-09-19T02:46:59;100453.19;;;20.89;57.27
15314;BME280;7757;52.626;4.746;2023-09-19T02:49:24;100427.81;;;20.73;56.79
15314;BME280;7757;52.626;4.746;2023-09-19T02:51:50;100449.31;;;20.75;57.67
15314;BME280;7757;52.626;4.746;2023-09-19T02:54:17;100446.63;;;20.85;57.45
15314;BME280;7757;52.626;4.746;2023-09-19T02:56:43;100441.78;;;20.50;57.87
15314;BME280;7757;52.626;4.746;2023-09-19T02:59:09;100435.72;;;20.75;58.32
15314;BME280;7757;52.626;4.746;2023-09-19T03:01:38;100428.19;;;20.87;58.05
15314;BME280;7757;52.626;4.746;2023-09-19T03:04:04;100439.31;;;20.90;57.62
15314;BME280;7757;52.626;4.746;2023-09-19T03:06:32;100445.84;;;20.84;58.60
15314;BME280;7757;52.626;4.746;2023-09-19T03:08:59;100437.00;;;20.67;57.74
15314;BME280;7757;52.626;4.746;2023-09-19T03:11:25;100455.19;;;20.62;58.51
15314;BME280;7757;52.626;4.746;2023-09-19T03:13:52;100448.16;;;20.66;57.76
15314;BME280;7757;52.626;4.746;2023-09-19T03:16:19;100455.34;;;20.45;58.82
15314;BME280;7757;52.626;4.746;2023-09-19T03:18:47;100449.22;;;20.65;58.98
15314;BME280;7757;52.626;4.746;2023-09-19T03:21:15;100452.75;;;20.60;58.19
15314;BME280;7757;52.626;4.746;2023-09-19T03:23:40;100464.50;;;20.76;58.27
15314;BME280;7757;52.626;4.746;2023-09-19T03:26:06;100448.47;;;20.74;58.33
15314;BME280;7757;52.626;4.746;2023-09-19T03:28:33;100455.78;;;20.69;58.85
15314;BME280;7757;52.626;4.746;2023-09-19T03:31:03;100437.84;;;20.31;58.25
15314;BME280;7757;52.626;4.746;2023-09-19T03:33:29;100442.31;;;20.52;57.77
15314;BME280;7757;52.626;4.746;2023-09-19T03:36:01;100461.03;;;20.80;58.02
15314;BME280;7757;52.626;4.746;2023-09-19T03:38:31;100465.63;;;20.80;58.37
15314;BME280;7757;52.626;4.746;2023-09-19T03:40:57;100468.25;;;20.65;58.51
15314;BME280;7757;52.626;4.746;2023-09-19T03:43:23;100452.44;;;20.56;58.41
15314;BME280;7757;52.626;4.746;2023-09-19T03:45:48;100478.59;;;20.68;58.40
15314;BME280;7757;52.626;4.746;2023-09-19T03:48:14;100476.97;;;20.67;58.53
15314;BME280;7757;52.626;4.746;2023-09-19T03:50:39;100469.28;;;20.58;58.57
15314;BME280;7757;52.626;4.746;2023-09-19T03:53:05;100460.28;;;20.53;57.57
15314;BME280;7757;52.626;4.746;2023-09-19T03:55:32;100494.69;;;20.74;57.51
15314;BME280;7757;52.626;4.746;2023-09-19T03:58:00;100477.66;;;20.52;57.39
15314;BME280;7757;52.626;4.746;2023-09-19T04:00:25;100457.97;;;20.35;57.54
15314;BME280;7757;52.626;4.746;2023-09-19T04:02:52;100496.28;;;20.70;57.92
15314;BME280;7757;52.626;4.746;2023-09-19T04:05:18;100487.78;;;20.62;57.54
15314;BME280;7757;52.626;4.746;2023-09-19T04:07:46;100479.09;;;20.59;57.37
15314;BME280;7757;52.626;4.746;2023-09-19T04:10:12;100508.25;;;20.69;57.68
15314;BME280;7757;52.626;4.746;2023-09-19T04:12:40;100495.91;;;20.56;57.00
15314;BME280;7757;52.626;4.746;2023-09-19T04:15:06;100500.34;;;20.68;57.21
15314;BME280;7757;52.626;4.746;2023-09-19T04:17:33;100500.91;;;20.38;56.56
15314;BME280;7757;52.626;4.746;2023-09-19T04:19:59;100502.03;;;20.42;56.74
15314;BME280;7757;52.626;4.746;2023-09-19T04:22:25;100491.84;;;20.59;57.56
15314;BME280;7757;52.626;4.746;2023-09-19T04:24:51;100479.59;;;20.56;57.25
15314;BME280;7757;52.626;4.746;2023-09-19T04:27:16;100476.00;;;20.46;57.78
15314;BME280;7757;52.626;4.746;2023-09-19T04:29:42;100500.19;;;20.47;57.71
15314;BME280;7757;52.626;4.746;2023-09-19T04:32:08;100486.03;;;20.45;57.65
15314;BME280;7757;52.626;4.746;2023-09-19T04:34:35;100502.09;;;20.52;57.15
15314;BME280;7757;52.626;4.746;2023-09-19T04:37:00;100501.25;;;20.46;57.24
15314;BME280;7757;52.626;4.746;2023-09-19T04:39:27;100454.28;;;20.19;57.05
15314;BME280;7757;52.626;4.746;2023-09-19T04:41:54;100492.13;;;20.57;57.11
15314;BME280;7757;52.626;4.746;2023-09-19T04:44:20;100482.34;;;20.62;56.89
15314;BME280;7757;52.626;4.746;2023-09-19T04:46:46;100486.16;;;20.61;56.90
15314;BME280;7757;52.626;4.746;2023-09-19T04:49:13;100487.75;;;20.56;56.96
15314;BME280;7757;52.626;4.746;2023-09-19T04:51:39;100492.91;;;20.58;57.14
15314;BME280;7757;52.626;4.746;2023-09-19T04:54:05;100509.50;;;20.56;56.75
15314;BME280;7757;52.626;4.746;2023-09-19T04:56:31;100492.66;;;20.59;56.81
15314;BME280;7757;52.626;4.746;2023-09-19T04:59:00;100492.91;;;20.58;56.50
15314;BME280;7757;52.626;4.746;2023-09-19T05:01:26;100474.59;;;20.43;56.57
15314;BME280;7757;52.626;4.746;2023-09-19T05:03:52;100498.59;;;20.51;56.79
15314;BME280;7757;52.626;4.746;2023-09-19T05:06:20;100474.34;;;20.45;56.89
15314;BME280;7757;52.626;4.746;2023-09-19T05:08:47;100517.88;;;20.55;56.98
15314;BME280;7757;52.626;4.746;2023-09-19T05:11:17;100484.72;;;20.53;56.81
15314;BME280;7757;52.626;4.746;2023-09-19T05:13:42;100500.03;;;20.64;56.83
15314;BME280;7757;52.626;4.746;2023-09-19T05:16:08;100492.66;;;20.59;57.25
15314;BME280;7757;52.626;4.746;2023-09-19T05:18:35;100502.56;;;20.39;56.71
15314;BME280;7757;52.626;4.746;2023-09-19T05:21:03;100472.16;;;20.15;56.30
15314;BME280;7757;52.626;4.746;2023-09-19T05:23:30;100508.19;;;20.32;56.42
15314;BME280;7757;52.626;4.746;2023-09-19T05:25:56;100506.69;;;20.20;56.55
15314;BME280;7757;52.626;4.746;2023-09-19T05:28:23;100509.31;;;20.10;56.14
15314;BME280;7757;52.626;4.746;2023-09-19T05:30:49;100519.53;;;20.02;57.45
15314;BME280;7757;52.626;4.746;2023-09-19T05:33:15;100517.72;;;20.35;56.46
15314;BME280;7757;52.626;4.746;2023-09-19T05:35:40;100498.44;;;20.10;56.83
15314;BME280;7757;52.626;4.746;2023-09-19T05:38:07;100520.56;;;20.23;56.38
15314;BME280;7757;52.626;4.746;2023-09-19T05:40:40;100505.38;;;19.74;56.82
15314;BME280;7757;52.626;4.746;2023-09-19T05:43:10;100516.22;;;19.95;56.82
15314;BME280;7757;52.626;4.746;2023-09-19T05:45:35;100516.06;;;20.07;57.31
15314;BME280;7757;52.626;4.746;2023-09-19T05:48:09;100488.13;;;20.12;56.65
15314;BME280;7757;52.626;4.746;2023-09-19T05:50:35;100522.00;;;20.04;57.47
15314;BME280;7757;52.626;4.746;2023-09-19T05:53:01;100518.56;;;19.87;57.19
15314;BME280;7757;52.626;4.746;2023-09-19T05:55:26;100520.88;;;20.00;56.47
15314;BME280;7757;52.626;4.746;2023-09-19T05:57:54;100528.59;;;19.86;57.76
15314;BME280;7757;52.626;4.746;2023-09-19T06:00:20;100520.19;;;19.88;57.44
15314;BME280;7757;52.626;4.746;2023-09-19T06:02:53;100512.88;;;20.15;56.69
15314;BME280;7757;52.626;4.746;2023-09-19T06:05:20;100511.97;;;20.04;56.70
15314;BME280;7757;52.626;4.746;2023-09-19T06:07:47;100501.69;;;20.07;56.72
15314;BME280;7757;52.626;4.746;2023-09-19T06:10:14;100488.69;;;20.14;56.39
15314;BME280;7757;52.626;4.746;2023-09-19T06:12:41;100511.97;;;19.78;56.94
15314;BME280;7757;52.626;4.746;2023-09-19T06:15:10;100488.56;;;19.98;57.16
15314;BME280;7757;52.626;4.746;2023-09-19T06:17:41;100506.69;;;20.20;56.91
15314;BME280;7757;52.626;4.746;2023-09-19T06:20:06;100485.97;;;20.14;56.56
15314;BME280;7757;52.626;4.746;2023-09-19T06:22:39;100509.25;;;20.31;56.96
15314;BME280;7757;52.626;4.746;2023-09-19T06:25:12;100514.03;;;20.19;57.44
15314;BME280;7757;52.626;4.746;2023-09-19T06:27:45;100518.47;;;20.57;55.90
15314;BME280;7757;52.626;4.746;2023-09-19T06:30:13;100441.00;;;19.96;56.39
15314;BME280;7757;52.626;4.746;2023-09-19T06:32:43;100516.78;;;20.51;56.51
15314;BME280;7757;52.626;4.746;2023-09-19T06:35:15;100488.94;;;20.34;56.31
15314;BME280;7757;52.626;4.746;2023-09-19T06:37:41;100514.13;;;20.61;56.76
15314;BME280;7757;52.626;4.746;2023-09-19T06:40:14;100513.25;;;20.50;56.68
15314;BME280;7757;52.626;4.746;2023-09-19T06:42:42;100534.03;;;20.67;56.75
15314;BME280;7757;52.626;4.746;2023-09-19T06:45:09;100527.34;;;20.47;56.90
15314;BME280;7757;52.626;4.746;2023-09-19T06:47:39;100507.25;;;20.48;56.54
15314;BME280;7757;52.626;4.746;2023-09-19T06:50:05;100527.78;;;20.66;56.20
15314;BME280;7757;52.626;4.746;2023-09-19T06:52:32;100532.44;;;20.71;56.53
15314;BME280;7757;52.626;4.746;2023-09-19T06:55:01;100533.50;;;20.70;56.10
15314;BME280;7757;52.626;4.746;2023-09-19T06:57:29;100546.13;;;20.81;56.08
15314;BME280;7757;52.626;4.746;2023-09-19T06:59:56;100546.13;;;20.81;55.86
15314;BME280;7757;52.626;4.746;2023-09-19T07:02:21;100539.53;;;20.77;56.41
15314;BME280;7757;52.626;4.746;2023-09-19T07:04:47;100550.97;;;20.79;56.19
15314;BME280;7757;52.626;4.746;2023-09-19T07:07:12;100521.56;;;20.71;55.95
15314;BME280;7757;52.626;4.746;2023-09-19T07:09:39;100531.41;;;20.77;55.05
15314;BME280;7757;52.626;4.746;2023-09-19T07:12:05;100569.22;;;20.83;55.44
15314;BME280;7757;52.626;4.746;2023-09-19T07:14:30;100548.88;;;20.86;55.40
15314;BME280;7757;52.626;4.746;2023-09-19T07:16:56;100513.59;;;20.59;55.20
15314;BME280;7757;52.626;4.746;2023-09-19T07:19:21;100558.25;;;20.73;55.16
15314;BME280;7757;52.626;4.746;2023-09-19T07:21:51;100556.47;;;20.84;55.87
15314;BME280;7757;52.626;4.746;2023-09-19T07:24:16;100557.53;;;20.83;55.94
15314;BME280;7757;52.626;4.746;2023-09-19T07:26:41;100546.75;;;20.93;55.64
15314;BME280;7757;52.626;4.746;2023-09-19T07:29:07;100557.53;;;20.83;55.47
15314;BME280;7757;52.626;4.746;2023-09-19T07:31:34;100516.44;;;20.74;55.05
15314;BME280;7757;52.626;4.746;2023-09-19T07:34:00;100536.84;;;20.82;55.18
15314;BME280;7757;52.626;4.746;2023-09-19T07:36:26;100564.63;;;20.84;56.14
15314;BME280;7757;52.626;4.746;2023-09-19T07:38:51;100549.41;;;20.88;55.66
15314;BME280;7757;52.626;4.746;2023-09-19T07:41:16;100516.47;;;20.79;55.36
15314;BME280;7757;52.626;4.746;2023-09-19T07:43:42;100549.34;;;20.78;55.48
15314;BME280;7757;52.626;4.746;2023-09-19T07:46:09;100533.28;;;20.76;55.47
15314;BME280;7757;52.626;4.746;2023-09-19T07:48:35;100548.88;;;20.91;55.72
15314;BME280;7757;52.626;4.746;2023-09-19T07:51:05;100552.13;;;20.88;55.68
15314;BME280;7757;52.626;4.746;2023-09-19T07:53:34;100528.44;;;20.78;55.60
15314;BME280;7757;52.626;4.746;2023-09-19T07:56:07;100536.78;;;20.72;55.91
15314;BME280;7757;52.626;4.746;2023-09-19T07:58:34;100521.03;;;20.74;55.14
15314;BME280;7757;52.626;4.746;2023-09-19T08:01:08;100515.38;;;20.80;55.84
15314;BME280;7757;52.626;4.746;2023-09-19T08:03:34;100543.00;;;21.04;55.26
15314;BME280;7757;52.626;4.746;2023-09-19T08:06:00;100543.16;;;20.87;55.02
15314;BME280;7757;52.626;4.746;2023-09-19T08:08:27;100537.28;;;21.00;55.09
15314;BME280;7757;52.626;4.746;2023-09-19T08:10:53;100488.78;;;20.87;55.10
15314;BME280;7757;52.626;4.746;2023-09-19T08:13:24;100511.25;;;21.09;54.71
15314;BME280;7757;52.626;4.746;2023-09-19T08:15:52;100523.31;;;21.29;54.91
15314;BME280;7757;52.626;4.746;2023-09-19T08:18:18;100523.06;;;21.25;53.81
15314;BME280;7757;52.626;4.746;2023-09-19T08:20:49;100533.13;;;21.25;54.81
15314;BME280;7757;52.626;4.746;2023-09-19T08:23:15;100520.81;;;21.17;55.32
15314;BME280;7757;52.626;4.746;2023-09-19T08:29:05;100521.09;;;21.21;55.58
15314;BME280;7757;52.626;4.746;2023-09-19T08:31:32;100529.06;;;21.32;55.10
15314;BME280;7757;52.626;4.746;2023-09-19T08:33:58;100515.47;;;21.32;55.74
15314;BME280;7757;52.626;4.746;2023-09-19T08:36:26;100529.91;;;21.38;55.74
15314;BME280;7757;52.626;4.746;2023-09-19T08:38:54;100517.97;;;21.44;56.02
15314;BME280;7757;52.626;4.746;2023-09-19T08:41:22;100517.41;;;21.37;55.27
15314;BME280;7757;52.626;4.746;2023-09-19T08:43:48;100525.88;;;21.40;55.69
15314;BME280;7757;52.626;4.746;2023-09-19T08:46:18;100525.88;;;21.50;55.64
15314;BME280;7757;52.626;4.746;2023-09-19T08:49:03;100496.47;;;21.37;55.49
15314;BME280;7757;52.626;4.746;2023-09-19T08:54:07;100516.06;;;21.49;55.19
15314;BME280;7757;52.626;4.746;2023-09-19T08:56:34;100504.69;;;21.57;54.87
15314;BME280;7757;52.626;4.746;2023-09-19T08:59:05;100533.53;;;21.58;55.62
15314;BME280;7757;52.626;4.746;2023-09-19T09:01:33;100511.97;;;21.42;55.55
15314;BME280;7757;52.626;4.746;2023-09-19T09:03:59;100510.94;;;21.53;55.84
15314;BME280;7757;52.626;4.746;2023-09-19T09:06:26;100509.81;;;21.44;55.93
15314;BME280;7757;52.626;4.746;2023-09-19T09:08:53;100521.81;;;21.53;55.72
15314;BME280;7757;52.626;4.746;2023-09-19T09:11:20;100503.06;;;21.56;55.07
15314;BME280;7757;52.626;4.746;2023-09-19T09:13:47;100515.88;;;21.61;55.86
15314;BME280;7757;52.626;4.746;2023-09-19T09:16:20;100514.75;;;21.57;55.17
15314;BME280;7757;52.626;4.746;2023-09-19T09:18:47;100517.47;;;21.52;55.28
15314;BME280;7757;52.626;4.746;2023-09-19T09:21:18;100523.75;;;21.57;55.75
15314;BME280;7757;52.626;4.746;2023-09-19T09:23:43;100497.03;;;21.49;55.54
15314;BME280;7757;52.626;4.746;2023-09-19T09:26:09;100488.84;;;21.44;55.64
15314;BME280;7757;52.626;4.746;2023-09-19T09:28:35;100493.78;;;21.52;55.61
15314;BME280;7757;52.626;4.746;2023-09-19T09:31:22;100441.16;;;21.22;55.98
15314;BME280;7757;52.626;4.746;2023-09-19T09:33:53;100483.47;;;21.59;56.31
15314;BME280;7757;52.626;4.746;2023-09-19T09:36:34;100498.72;;;21.60;56.01
15314;BME280;7757;52.626;4.746;2023-09-19T09:38:59;100466.56;;;21.47;55.51
15314;BME280;7757;52.626;4.746;2023-09-19T09:41:40;100480.50;;;21.61;55.85
15314;BME280;7757;52.626;4.746;2023-09-19T09:44:13;100480.47;;;21.56;56.50
15314;BME280;7757;52.626;4.746;2023-09-19T09:46:44;100491.94;;;21.63;56.59
15314;BME280;7757;52.626;4.746;2023-09-19T09:49:23;100476.88;;;21.40;56.97
15314;BME280;7757;52.626;4.746;2023-09-19T09:52:06;100474.44;;;21.44;57.12
15314;BME280;7757;52.626;4.746;2023-09-19T09:54:33;100488.88;;;21.49;57.07
15314;BME280;7757;52.626;4.746;2023-09-19T09:57:06;100477.69;;;21.41;57.95
15314;BME280;7757;52.626;4.746;2023-09-19T09:59:56;100466.78;;;21.36;58.27
15314;BME280;7757;52.626;4.746;2023-09-19T10:02:44;100479.59;;;21.40;58.85
15314;BME280;7757;52.626;4.746;2023-09-19T10:05:21;100467.31;;;21.28;58.43
15314;BME280;7757;52.626;4.746;2023-09-19T10:07:54;100470.63;;;21.45;58.37
15314;BME280;7757;52.626;4.746;2023-09-19T10:10:35;100434.34;;;21.19;59.07
15314;BME280;7757;52.626;4.746;2023-09-19T10:13:20;100470.25;;;21.26;59.72
15314;BME280;7757;52.626;4.746;2023-09-19T10:15:51;100462.41;;;21.35;59.37
15314;BME280;7757;52.626;4.746;2023-09-19T10:18:26;100461.03;;;21.27;60.38
15314;BME280;7757;52.626;4.746;2023-09-19T10:20:53;100425.63;;;21.17;60.37
15314;BME280;7757;52.626;4.746;2023-09-19T10:23:21;100434.66;;;21.23;60.03
15314;BME280;7757;52.626;4.746;2023-09-19T10:25:51;100441.16;;;21.27;60.86
15314;BME280;7757;52.626;4.746;2023-09-19T10:28:19;100415.78;;;21.11;60.27
15314;BME280;7757;52.626;4.746;2023-09-19T10:30:50;100424.53;;;21.13;60.78
15314;BME280;7757;52.626;4.746;2023-09-19T10:33:21;100434.34;;;21.19;61.02
15314;BME280;7757;52.626;4.746;2023-09-19T10:35:49;100424.19;;;21.04;61.74
15314;BME280;7757;52.626;4.746;2023-09-19T10:38:34;100373.28;;;20.90;60.64
15314;BME280;7757;52.626;4.746;2023-09-19T10:41:01;100427.19;;;21.08;60.88
15314;BME280;7757;52.626;4.746;2023-09-19T10:43:32;100394.22;;;20.94;61.64
15314;BME280;7757;52.626;4.746;2023-09-19T10:46:03;100445.19;;;21.14;61.44
15314;BME280;7757;52.626;4.746;2023-09-19T10:48:32;100424.53;;;21.13;61.42
15314;BME280;7757;52.626;4.746;2023-09-19T10:51:08;100416.84;;;21.05;61.77
15314;BME280;7757;52.626;4.746;2023-09-19T10:53:46;100450.09;;;21.17;62.57
15314;BME280;7757;52.626;4.746;2023-09-19T10:56:18;100447.34;;;21.12;62.45
15314;BME280;7757;52.626;4.746;2023-09-19T10:58:44;100450.91;;;21.12;62.61
15314;BME280;7757;52.626;4.746;2023-09-19T11:01:11;100433.50;;;21.13;63.03
15314;BME280;7757;52.626;4.746;2023-09-19T11:03:44;100417.72;;;21.10;63.28
15314;BME280;7757;52.626;4.746;2023-09-19T11:06:17;100431.88;;;21.18;63.67
15314;BME280;7757;52.626;4.746;2023-09-19T11:09:03;100410.72;;;21.25;62.66
15314;BME280;7757;52.626;4.746;2023-09-19T11:11:50;100423.47;;;21.24;62.83
15314;BME280;7757;52.626;4.746;2023-09-19T11:30:50;100408.00;;;21.30;62.64
15314;BME280;7757;52.626;4.746;2023-09-19T11:33:31;100385.63;;;21.18;63.34
15314;BME280;7757;52.626;4.746;2023-09-19T11:36:06;100371.81;;;21.24;62.56
15314;BME280;7757;52.626;4.746;2023-09-19T11:43:52;100411.00;;;21.28;63.09
15314;BME280;7757;52.626;4.746;2023-09-19T11:46:20;100420.22;;;21.27;62.94
15314;BME280;7757;52.626;4.746;2023-09-19T11:48:49;100362.44;;;21.00;63.10
15314;BME280;7757;52.626;4.746;2023-09-19T11:51:18;100387.88;;;21.26;63.01
15314;BME280;7757;52.626;4.746;2023-09-19T11:53:46;100414.81;;;21.32;62.93
15314;BME280;7757;52.626;4.746;2023-09-19T11:56:17;100394.09;;;21.16;63.11
15314;BME280;7757;52.626;4.746;2023-09-19T11:58:46;100400.66;;;21.25;64.31
15314;BME280;7757;52.626;4.746;2023-09-19T12:01:19;100382.66;;;21.19;63.79
15314;BME280;7757;52.626;4.746;2023-09-19T12:03:47;100394.41;;;21.35;62.80
15314;BME280;7757;52.626;4.746;2023-09-19T12:06:20;100390.31;;;21.27;62.85
15314;BME280;7757;52.626;4.746;2023-09-19T12:08:47;100385.69;;;21.28;63.33
15314;BME280;7757;52.626;4.746;2023-09-19T12:11:15;100394.38;;;21.25;62.98
15314;BME280;7757;52.626;4.746;2023-09-19T12:13:47;100411.78;;;21.29;64.03
15314;BME280;7757;52.626;4.746;2023-09-19T12:16:18;100400.38;;;21.27;64.44
15314;BME280;7757;52.626;4.746;2023-09-19T12:18:47;100344.22;;;21.00;64.11
15314;BME280;7757;52.626;4.746;2023-09-19T12:24:04;100404.44;;;21.29;64.15
15314;BME280;7757;52.626;4.746;2023-09-19T12:26:38;100380.00;;;21.34;63.57
15314;BME280;7757;52.626;4.746;2023-09-19T12:29:11;100363.16;;;21.37;63.93
15314;BME280;7757;52.626;4.746;2023-09-19T12:31:50;100368.25;;;21.19;64.01
15314;BME280;7757;52.626;4.746;2023-09-19T12:34:28;100387.88;;;21.26;64.76
15314;BME280;7757;52.626;4.746;2023-09-19T12:37:11;100403.66;;;21.34;63.85
15314;BME280;7757;52.626;4.746;2023-09-19T12:39:42;100381.88;;;21.29;63.53
15314;BME280;7757;52.626;4.746;2023-09-19T12:42:11;100378.06;;;21.35;63.88
15314;BME280;7757;52.626;4.746;2023-09-19T12:44:44;100383.81;;;21.38;64.71
15314;BME280;7757;52.626;4.746;2023-09-19T12:47:11;100351.13;;;21.23;63.44
15314;BME280;7757;52.626;4.746;2023-09-19T12:52:46;100358.78;;;21.31;63.42
15314;BME280;7757;52.626;4.746;2023-09-19T12:55:21;100370.50;;;21.47;63.69
15314;BME280;7757;52.626;4.746;2023-09-19T12:58:12;100380.28;;;21.43;63.79
15314;BME280;7757;52.626;4.746;2023-09-19T13:00:42;100362.59;;;21.40;64.26
15314;BME280;7757;52.626;4.746;2023-09-19T13:08:24;100377.00;;;21.41;64.24
15314;BME280;7757;52.626;4.746;2023-09-19T13:11:15;100359.59;;;21.37;64.24
15314;BME280;7757;52.626;4.746;2023-09-19T13:19:39;100397.41;;;21.33;64.63
15314;BME280;7757;52.626;4.746;2023-09-19T13:22:40;100372.91;;;21.38;64.12
15314;BME280;7757;52.626;4.746;2023-09-19T13:25:13;100376.47;;;21.39;64.53
15314;BME280;7757;52.626;4.746;2023-09-19T13:27:51;100360.97;;;21.34;64.55
15314;BME280;7757;52.626;4.746;2023-09-19T13:30:18;100357.72;;;21.37;63.93
15314;BME280;7757;52.626;4.746;2023-09-19T13:32:44;100351.69;;;21.30;65.00
15314;BME280;7757;52.626;4.746;2023-09-19T13:35:09;100360.91;;;21.29;64.04
15314;BME280;7757;52.626;4.746;2023-09-19T13:37:36;100367.47;;;21.28;64.26
15314;BME280;7757;52.626;4.746;2023-09-19T13:40:05;100367.75;;;21.37;65.09
15314;BME280;7757;52.626;4.746;2023-09-19T13:42:31;100352.50;;;21.36;65.38
15314;BME280;7757;52.626;4.746;2023-09-19T13:44:57;100351.13;;;21.23;64.98
15314;BME280;7757;52.626;4.746;2023-09-19T13:47:23;100363.69;;;21.34;64.46
15314;BME280;7757;52.626;4.746;2023-09-19T13:49:50;100374.56;;;21.34;64.66
15314;BME280;7757;52.626;4.746;2023-09-19T13:52:21;100368.59;;;21.37;64.53
15314;BME280;7757;52.626;4.746;2023-09-19T13:54:50;100362.84;;;21.34;64.74
15314;BME280;7757;52.626;4.746;2023-09-19T13:57:16;100384.06;;;21.32;65.01
15314;BME280;7757;52.626;4.746;2023-09-19T13:59:42;100348.38;;;21.18;65.03
15314;BME280;7757;52.626;4.746;2023-09-19T14:02:09;100353.56;;;21.20;65.61
15314;BME280;7757;52.626;4.746;2023-09-19T14:04:34;100364.72;;;21.23;65.13
15314;BME280;7757;52.626;4.746;2023-09-19T14:07:01;100358.75;;;21.26;65.34
15314;BME280;7757;52.626;4.746;2023-09-19T14:09:27;100347.06;;;21.26;65.00